Terminal Aerodrome Forecast
Issued by NWS Mt. Holly, NJ

Home | Current Version | Previous Version | Text Only | Print | Product List | Glossary On
Versions: 1 2 3 4 5 6 7 8 9 10 11 12 13 14 15 16 17 18 19 20 21 22 23 24 25 26 27
000
FTUS41 KPHI 270200 AAB
TAFACY
TAF AMD
KACY 270241Z 2703/2724 02012G28KT 6SM -SN OVC012
      TEMPO 2703/2704 3SM -SN
     FM270400 02020G30KT 2SM -SN OVC010
     FM270500 02020G31KT 3/4SM -SN OVC003
     FM271800 35018G29KT 3SM -SN BLSN OVC009
     FM272100 35018G28KT 3SM -SN BLSN OVC015
     FM272300 32015G26KT P6SM SCT025 BKN080=

USA.gov is the U.S. government's official web portal to all federal, state and local government web resources and services.